Sunday, July 22, 2018, 12:47 PM GMT
Back to Local

CYQI, Yarmouth, N. S.

Location: , , Canada Lat: 43.833
Local Time: 12:47 PM GMT (12:47 GMT) Lon: -66.083
Time Zone: GMT Elev: 141 ft

Show me the last for .
Show Coded

Time T Td Feel RH Dir Speed Gust Alt SLP Vis Weather Sky Remarks
2018-07-22 12:22 68 68 - 100 190° 16 - 30.23 30.24 1 BR OVC002 None
2018-07-22 12:00 68 68 - 100 190° 13 21 30.22 30.23 0 FG OVC002 None
2018-07-22 11:53 68 68 - 100 190° 15 25 30.22 30.22 0 FG OVC002 None
2018-07-22 11:35 68 68 - 100 200° 15 - 30.22 30.22 0 -SHRA FG OVC002 None
2018-07-22 11:18 68 68 - 100 190° 10 18 30.21 30.22 0 FG OVC006 None
2018-07-22 11:04 68 68 - 100 170° 13 - 30.21 30.21 0 -DZ BR OVC007 None
2018-07-22 11:00 68 68 - 100 180° 12 - 30.21 30.21 0 FG OVC008 None
2018-07-22 10:08 64 64 - 100 110° 8 - 30.20 30.20 0 FG OVC007 None
2018-07-22 10:00 63 63 - 100 100° 7 - 30.20 30.20 0 -DZ FG VV002 None
2018-07-22 09:50 63 63 - 100 100° 8 - 30.20 30.20 0 -DZ FG VV002 None
2018-07-22 09:00 61 61 - 100 100° 7 - 30.19 30.20 0 -DZ FG OVC008 None
2018-07-22 08:53 61 61 - 100 100° 8 - 30.19 30.20 0 -DZ FG OVC008 None
2018-07-22 08:50 61 61 - 100 100° 7 - 30.19 30.20 0 -DZ BR OVC008 None
2018-07-22 08:17 61 61 - 100 90° 8 - 30.19 30.20 0 -DZ BR OVC002 None
2018-07-22 08:00 59 59 - 100 100° 9 - 30.19 30.20 1 -DZ BR OVC002 None
2018-07-22 07:25 59 59 - 100 90° 9 - 30.19 30.20 1 -DZ BR OVC004 None
2018-07-22 07:00 59 59 - 100 110° 6 - 30.20 30.20 2 -DZ BR OVC005 None
2018-07-22 06:35 57 57 - 100 90° 7 - 30.20 30.20 4 -DZ BR SCT007 OVC021 None
2018-07-22 06:18 57 57 - 100 100° 7 - 30.20 30.20 3 BR SCT012 OVC029 None
2018-07-22 06:14 57 57 - 100 100° 7 - 30.20 30.20 2 BR OVC010 None
2018-07-22 06:13 57 57 - 100 100° 7 - 30.20 30.20 1 BR OVC009 None
2018-07-22 06:11 57 57 - 100 100° 7 - 30.20 30.20 1 BR OVC009 None
2018-07-22 06:10 57 57 - 100 90° 7 - 30.20 30.20 0 BR OVC006 None
2018-07-22 06:07 57 57 - 100 90° 7 - 30.20 30.20 0 FG OVC006 None
2018-07-22 06:00 57 57 - 100 90° 8 - 30.20 30.20 0 FG VV001 None
2018-07-22 05:00 55 55 - 100 110° 8 - 30.21 30.21 0 FG VV001 None
2018-07-22 04:00 55 55 - 100 110° 6 - 30.22 30.22 0 FG VV001 None
2018-07-22 03:00 55 55 - 100 140° 6 - 30.22 30.23 0 FG VV001 None
2018-07-22 02:00 55 55 - 100 180° 7 - 30.22 30.22 0 FG VV001 None
2018-07-22 01:00 55 55 - 100 170° 6 - 30.20 30.21 0 FG VV001 None
2018-07-22 00:00 55 55 - 100 180° 6 - 30.20 30.20 0 FG BKN005 None
2018-07-21 23:52 55 55 - 100 180° 7 - 30.20 30.20 0 FG SCT005 None
2018-07-21 23:00 61 57 - 87 180° 9 - 30.19 30.19 12 FEW035 FEW250 None
2018-07-21 22:22 63 57 - 82 190° 8 - 30.18 30.19 12 FEW002 FEW035 FEW250 None
2018-07-21 22:00 64 57 - 77 190° 7 - 30.18 30.19 15 FEW030 FEW250 None
2018-07-21 21:00 64 57 - 77 260° 8 - 30.17 30.17 15 FEW038 FEW250 None
2018-07-21 20:00 66 59 - 77 260° 8 - 30.15 30.16 15 FEW038CB SCT250 None
2018-07-21 19:00 72 64 76 78 290° 9 - 30.14 30.14 15 FEW038CB SCT250 None
2018-07-21 18:00 70 63 - 77 310° 14 - 30.15 30.15 15 FEW038CB FEW140 SCT250 None
2018-07-21 17:00 73 66 77 78 290° 13 - 30.14 30.14 15 FEW038 FEW120 SCT250 None
2018-07-21 16:00 72 64 76 78 290° 8 - 30.14 30.15 15 FEW016 FEW038 SCT140 BKN250 None
2018-07-21 15:19 70 64 - 83 310° 12 - 30.16 30.16 15 BKN015 BKN040 BKN250 None
2018-07-21 15:00 70 64 - 83 290° 9 - 30.16 30.16 12 -DZ BKN016 BKN250 None
2018-07-21 14:55 70 64 - 83 270° 9 - 30.16 30.17 12 -DZ BKN016 BKN250 None
2018-07-21 14:00 70 64 - 83 20° 5 - 30.16 30.16 15 FEW010 BKN014 BKN030 BKN250 None
2018-07-21 13:00 66 63 - 88 60° 7 - 30.16 30.17 15 BKN008 BKN028 BKN250 None

Support USWX by starting your Amazon purchase here.